sensor_id;sensor_type;location;lat;lon;timestamp;pressure;altitude;pressure_sealevel;temperature;humidity
67740;BME280;54536;50.090;14.420;2023-03-26T00:01:06;98532.28;;;11.92;47.74
67740;BME280;54536;50.090;14.420;2023-03-26T00:03:36;98549.88;;;12.00;47.06
67740;BME280;54536;50.090;14.420;2023-03-26T00:06:15;98543.16;;;11.89;46.81
67740;BME280;54536;50.090;14.420;2023-03-26T00:08:44;98544.31;;;11.94;46.92
67740;BME280;54536;50.090;14.420;2023-03-26T00:11:12;98540.69;;;11.87;47.16
67740;BME280;54536;50.090;14.420;2023-03-26T00:13:39;98545.31;;;11.93;46.91
67740;BME280;54536;50.090;14.420;2023-03-26T00:16:10;98560.09;;;11.86;47.21
67740;BME280;54536;50.090;14.420;2023-03-26T00:18:40;98551.50;;;11.76;47.23
67740;BME280;54536;50.090;14.420;2023-03-26T00:21:12;98547.41;;;11.90;46.89
67740;BME280;54536;50.090;14.420;2023-03-26T00:23:38;98548.06;;;11.84;47.51
67740;BME280;54536;50.090;14.420;2023-03-26T00:26:05;98559.94;;;11.96;47.26
67740;BME280;54536;50.090;14.420;2023-03-26T00:28:37;98551.06;;;11.97;47.03
67740;BME280;54536;50.090;14.420;2023-03-26T00:31:10;98555.31;;;11.90;47.66
67740;BME280;54536;50.090;14.420;2023-03-26T00:33:37;98560.44;;;11.91;47.58
67740;BME280;54536;50.090;14.420;2023-03-26T00:36:09;98557.28;;;11.96;47.37
67740;BME280;54536;50.090;14.420;2023-03-26T00:38:36;98553.19;;;11.77;48.25
67740;BME280;54536;50.090;14.420;2023-03-26T00:41:06;98555.00;;;11.85;47.35
67740;BME280;54536;50.090;14.420;2023-03-26T00:43:34;98566.66;;;11.82;47.78
67740;BME280;54536;50.090;14.420;2023-03-26T00:46:01;98553.00;;;11.79;47.61
67740;BME280;54536;50.090;14.420;2023-03-26T00:48:28;98547.72;;;11.79;48.10
67740;BME280;54536;50.090;14.420;2023-03-26T00:50:55;98558.25;;;11.79;47.78
67740;BME280;54536;50.090;14.420;2023-03-26T00:53:22;98544.47;;;11.85;47.69
67740;BME280;54536;50.090;14.420;2023-03-26T00:55:48;98539.81;;;11.79;47.78
67740;BME280;54536;50.090;14.420;2023-03-26T00:58:15;98544.09;;;11.80;47.74
67740;BME280;54536;50.090;14.420;2023-03-26T01:00:46;98541.47;;;11.71;48.30
67740;BME280;54536;50.090;14.420;2023-03-26T01:03:20;98548.41;;;11.64;48.76
67740;BME280;54536;50.090;14.420;2023-03-26T01:05:57;98557.66;;;11.85;48.52
67740;BME280;54536;50.090;14.420;2023-03-26T01:11:11;98556.78;;;11.68;48.77
67740;BME280;54536;50.090;14.420;2023-03-26T01:13:47;98547.06;;;11.68;48.37
67740;BME280;54536;50.090;14.420;2023-03-26T01:16:21;98549.03;;;11.66;48.26
67740;BME280;54536;50.090;14.420;2023-03-26T01:18:48;98548.72;;;11.69;48.55
67740;BME280;54536;50.090;14.420;2023-03-26T01:21:21;98549.84;;;11.83;48.12
67740;BME280;54536;50.090;14.420;2023-03-26T01:24:01;98545.59;;;11.74;48.48
67740;BME280;54536;50.090;14.420;2023-03-26T01:26:45;98545.75;;;11.72;48.45
67740;BME280;54536;50.090;14.420;2023-03-26T01:32:16;98550.72;;;11.84;48.58
67740;BME280;54536;50.090;14.420;2023-03-26T01:37:27;98544.75;;;11.57;48.87
67740;BME280;54536;50.090;14.420;2023-03-26T01:40:05;98544.91;;;11.56;48.94
67740;BME280;54536;50.090;14.420;2023-03-26T01:42:40;98548.38;;;11.56;49.22
67740;BME280;54536;50.090;14.420;2023-03-26T01:45:15;98541.47;;;11.55;49.39
67740;BME280;54536;50.090;14.420;2023-03-26T01:47:45;98547.03;;;11.44;48.80
67740;BME280;54536;50.090;14.420;2023-03-26T01:50:12;98545.28;;;11.61;49.29
67740;BME280;54536;50.090;14.420;2023-03-26T01:52:38;98540.63;;;11.46;49.73
67740;BME280;54536;50.090;14.420;2023-03-26T01:55:06;98538.00;;;11.46;49.32
67740;BME280;54536;50.090;14.420;2023-03-26T01:58:12;98541.44;;;11.47;48.73
67740;BME280;54536;50.090;14.420;2023-03-26T02:03:52;98548.56;;;11.55;48.91
67740;BME280;54536;50.090;14.420;2023-03-26T02:06:50;98544.75;;;11.49;50.00
67740;BME280;54536;50.090;14.420;2023-03-26T02:09:20;98543.25;;;11.46;49.63
67740;BME280;54536;50.090;14.420;2023-03-26T02:11:50;98538.66;;;11.40;49.64
67740;BME280;54536;50.090;14.420;2023-03-26T02:14:16;98549.03;;;11.50;49.28
67740;BME280;54536;50.090;14.420;2023-03-26T02:16:42;98549.03;;;11.42;49.34
67740;BME280;54536;50.090;14.420;2023-03-26T02:19:12;98551.34;;;11.53;50.13
67740;BME280;54536;50.090;14.420;2023-03-26T02:21:41;98548.88;;;11.60;49.38
67740;BME280;54536;50.090;14.420;2023-03-26T02:24:07;98550.16;;;11.47;50.10
67740;BME280;54536;50.090;14.420;2023-03-26T02:26:35;98543.59;;;11.60;49.60
67740;BME280;54536;50.090;14.420;2023-03-26T02:29:02;98549.88;;;11.59;49.59
67740;BME280;54536;50.090;14.420;2023-03-26T02:31:28;98560.41;;;11.59;50.19
67740;BME280;54536;50.090;14.420;2023-03-26T02:33:55;98563.84;;;11.51;49.62
67740;BME280;54536;50.090;14.420;2023-03-26T02:36:22;98565.47;;;11.44;50.26
67740;BME280;54536;50.090;14.420;2023-03-26T02:38:55;98559.72;;;11.48;50.30
67740;BME280;54536;50.090;14.420;2023-03-26T02:41:22;98560.56;;;11.49;49.88
67740;BME280;54536;50.090;14.420;2023-03-26T02:43:49;98554.16;;;11.52;50.54
67740;BME280;54536;50.090;14.420;2023-03-26T02:46:15;98555.78;;;11.53;49.75
67740;BME280;54536;50.090;14.420;2023-03-26T02:48:41;98547.88;;;11.44;50.40
67740;BME280;54536;50.090;14.420;2023-03-26T02:51:08;98549.66;;;11.44;50.44
67740;BME280;54536;50.090;14.420;2023-03-26T02:53:34;98553.16;;;11.44;49.72
67740;BME280;54536;50.090;14.420;2023-03-26T02:56:02;98548.53;;;11.46;49.96
67740;BME280;54536;50.090;14.420;2023-03-26T02:58:28;98540.63;;;11.38;49.81
67740;BME280;54536;50.090;14.420;2023-03-26T03:00:55;98538.16;;;11.37;50.52
67740;BME280;54536;50.090;14.420;2023-03-26T03:03:26;98537.97;;;11.30;51.21
67740;BME280;54536;50.090;14.420;2023-03-26T03:05:53;98531.09;;;11.45;50.40
67740;BME280;54536;50.090;14.420;2023-03-26T03:08:21;98523.84;;;11.39;49.91
67740;BME280;54536;50.090;14.420;2023-03-26T03:11:16;98531.41;;;11.34;50.36
67740;BME280;54536;50.090;14.420;2023-03-26T03:13:43;98537.16;;;11.38;50.70
67740;BME280;54536;50.090;14.420;2023-03-26T03:16:10;98527.63;;;11.37;50.80
67740;BME280;54536;50.090;14.420;2023-03-26T03:18:36;98528.75;;;11.34;51.01
67740;BME280;54536;50.090;14.420;2023-03-26T03:21:03;98522.69;;;11.42;50.48
67740;BME280;54536;50.090;14.420;2023-03-26T03:23:31;98528.13;;;11.48;50.20
67740;BME280;54536;50.090;14.420;2023-03-26T03:25:57;98529.13;;;11.56;49.94
67740;BME280;54536;50.090;14.420;2023-03-26T03:28:24;98526.31;;;11.49;50.40
67740;BME280;54536;50.090;14.420;2023-03-26T03:30:51;98529.78;;;11.41;51.07
67740;BME280;54536;50.090;14.420;2023-03-26T03:33:19;98529.94;;;11.40;51.33
67740;BME280;54536;50.090;14.420;2023-03-26T03:35:46;98530.25;;;11.37;51.33
67740;BME280;54536;50.090;14.420;2023-03-26T03:38:16;98527.47;;;11.38;51.48
67740;BME280;54536;50.090;14.420;2023-03-26T03:40:42;98526.44;;;11.23;51.58
67740;BME280;54536;50.090;14.420;2023-03-26T03:43:09;98526.28;;;11.24;51.38
67740;BME280;54536;50.090;14.420;2023-03-26T03:45:36;98527.94;;;11.25;51.95
67740;BME280;54536;50.090;14.420;2023-03-26T03:48:02;98527.59;;;11.20;51.36
67740;BME280;54536;50.090;14.420;2023-03-26T03:50:28;98533.84;;;11.28;51.72
67740;BME280;54536;50.090;14.420;2023-03-26T03:52:54;98535.53;;;11.29;52.27
67740;BME280;54536;50.090;14.420;2023-03-26T03:55:20;98535.03;;;11.33;51.91
67740;BME280;54536;50.090;14.420;2023-03-26T03:57:49;98543.09;;;11.40;51.45
67740;BME280;54536;50.090;14.420;2023-03-26T04:00:17;98539.97;;;11.36;51.81
67740;BME280;54536;50.090;14.420;2023-03-26T04:02:43;98541.28;;;11.40;51.09
67740;BME280;54536;50.090;14.420;2023-03-26T04:05:11;98537.16;;;11.30;51.53
67740;BME280;54536;50.090;14.420;2023-03-26T04:07:37;98535.00;;;11.17;52.33
67740;BME280;54536;50.090;14.420;2023-03-26T04:10:04;98542.41;;;11.30;51.52
67740;BME280;54536;50.090;14.420;2023-03-26T04:12:31;98538.78;;;11.31;51.84
67740;BME280;54536;50.090;14.420;2023-03-26T04:14:58;98539.47;;;11.41;51.42
67740;BME280;54536;50.090;14.420;2023-03-26T04:17:24;98540.78;;;11.37;51.46
67740;BME280;54536;50.090;14.420;2023-03-26T04:19:51;98539.78;;;11.38;50.92
67740;BME280;54536;50.090;14.420;2023-03-26T04:22:20;98538.34;;;11.52;50.70
67740;BME280;54536;50.090;14.420;2023-03-26T04:24:46;98534.22;;;11.57;50.91
67740;BME280;54536;50.090;14.420;2023-03-26T04:27:23;98538.50;;;11.50;50.90
67740;BME280;54536;50.090;14.420;2023-03-26T04:29:52;98530.63;;;11.58;50.29
67740;BME280;54536;50.090;14.420;2023-03-26T04:32:23;98528.94;;;11.41;50.98
67740;BME280;54536;50.090;14.420;2023-03-26T04:34:51;98525.00;;;11.45;51.36
67740;BME280;54536;50.090;14.420;2023-03-26T04:37:38;98514.78;;;11.34;51.27
67740;BME280;54536;50.090;14.420;2023-03-26T04:40:20;98517.59;;;11.48;50.84
67740;BME280;54536;50.090;14.420;2023-03-26T04:42:47;98512.97;;;11.34;51.26
67740;BME280;54536;50.090;14.420;2023-03-26T04:45:15;98513.13;;;11.41;51.57
67740;BME280;54536;50.090;14.420;2023-03-26T04:47:42;98520.88;;;11.34;51.36
67740;BME280;54536;50.090;14.420;2023-03-26T04:50:11;98518.25;;;11.42;50.69
67740;BME280;54536;50.090;14.420;2023-03-26T04:52:37;98527.78;;;11.43;51.36
67740;BME280;54536;50.090;14.420;2023-03-26T04:55:21;98519.75;;;11.45;50.39
67740;BME280;54536;50.090;14.420;2023-03-26T04:57:55;98520.06;;;11.50;51.03
67740;BME280;54536;50.090;14.420;2023-03-26T05:00:22;98523.69;;;11.49;51.19
67740;BME280;54536;50.090;14.420;2023-03-26T05:02:49;98536.69;;;11.51;50.42
67740;BME280;54536;50.090;14.420;2023-03-26T05:05:16;98526.16;;;11.51;51.31
67740;BME280;54536;50.090;14.420;2023-03-26T05:07:42;98525.19;;;11.52;50.89
67740;BME280;54536;50.090;14.420;2023-03-26T05:10:13;98523.53;;;11.59;51.23
67740;BME280;54536;50.090;14.420;2023-03-26T05:12:40;98527.81;;;11.52;51.00
67740;BME280;54536;50.090;14.420;2023-03-26T05:15:09;98524.50;;;11.49;51.11
67740;BME280;54536;50.090;14.420;2023-03-26T05:17:35;98528.78;;;11.51;50.95
67740;BME280;54536;50.090;14.420;2023-03-26T05:20:18;98521.88;;;11.49;51.59
67740;BME280;54536;50.090;14.420;2023-03-26T05:22:46;98520.22;;;11.40;51.58
67740;BME280;54536;50.090;14.420;2023-03-26T05:25:13;98521.22;;;11.56;50.94
67740;BME280;54536;50.090;14.420;2023-03-26T05:27:39;98522.88;;;11.48;51.57
67740;BME280;54536;50.090;14.420;2023-03-26T05:30:06;98516.97;;;11.55;51.20
67740;BME280;54536;50.090;14.420;2023-03-26T05:32:33;98521.41;;;11.62;51.10
67740;BME280;54536;50.090;14.420;2023-03-26T05:34:59;98519.09;;;11.67;50.45
67740;BME280;54536;50.090;14.420;2023-03-26T05:37:28;98519.91;;;11.68;50.71
67740;BME280;54536;50.090;14.420;2023-03-26T05:39:57;98512.03;;;11.52;51.48
67740;BME280;54536;50.090;14.420;2023-03-26T05:42:25;98524.53;;;11.58;50.93
67740;BME280;54536;50.090;14.420;2023-03-26T05:44:51;98522.56;;;11.52;51.31
67740;BME280;54536;50.090;14.420;2023-03-26T05:47:17;98510.69;;;11.56;51.15
67740;BME280;54536;50.090;14.420;2023-03-26T05:49:44;98520.06;;;11.50;51.16
67740;BME280;54536;50.090;14.420;2023-03-26T05:52:11;98515.28;;;11.54;50.80
67740;BME280;54536;50.090;14.420;2023-03-26T05:54:41;98508.91;;;11.48;51.65
67740;BME280;54536;50.090;14.420;2023-03-26T05:57:07;98513.16;;;11.49;51.66
67740;BME280;54536;50.090;14.420;2023-03-26T05:59:33;98511.38;;;11.58;51.49
67740;BME280;54536;50.090;14.420;2023-03-26T06:01:59;98519.91;;;11.52;51.39
67740;BME280;54536;50.090;14.420;2023-03-26T06:04:25;98516.78;;;11.64;50.53
67740;BME280;54536;50.090;14.420;2023-03-26T06:06:53;98509.22;;;11.61;50.57
67740;BME280;54536;50.090;14.420;2023-03-26T06:09:19;98507.25;;;11.55;51.29
67740;BME280;54536;50.090;14.420;2023-03-26T06:11:46;98509.38;;;11.52;51.92
67740;BME280;54536;50.090;14.420;2023-03-26T06:14:13;98507.41;;;11.62;50.43
67740;BME280;54536;50.090;14.420;2023-03-26T06:16:38;98510.19;;;11.60;51.11
67740;BME280;54536;50.090;14.420;2023-03-26T06:19:05;98505.56;;;11.54;50.84
67740;BME280;54536;50.090;14.420;2023-03-26T06:21:31;98514.66;;;11.68;50.75
67740;BME280;54536;50.090;14.420;2023-03-26T06:23:57;98512.69;;;11.62;50.73
67740;BME280;54536;50.090;14.420;2023-03-26T06:26:23;98515.47;;;11.77;50.33
67740;BME280;54536;50.090;14.420;2023-03-26T06:28:50;98513.00;;;11.75;50.87
67740;BME280;54536;50.090;14.420;2023-03-26T06:31:16;98504.09;;;11.76;51.13
67740;BME280;54536;50.090;14.420;2023-03-26T06:33:44;98505.78;;;11.85;50.89
67740;BME280;54536;50.090;14.420;2023-03-26T06:36:11;98509.91;;;11.88;50.50
67740;BME280;54536;50.090;14.420;2023-03-26T06:38:37;98501.31;;;11.86;50.12
67740;BME280;54536;50.090;14.420;2023-03-26T06:41:05;98502.97;;;11.95;50.70
67740;BME280;54536;50.090;14.420;2023-03-26T06:43:32;98505.09;;;12.00;49.99
67740;BME280;54536;50.090;14.420;2023-03-26T06:46:02;98505.13;;;11.91;49.93
67740;BME280;54536;50.090;14.420;2023-03-26T06:48:28;98502.16;;;11.94;49.56
67740;BME280;54536;50.090;14.420;2023-03-26T06:50:54;98505.56;;;12.03;50.25
67740;BME280;54536;50.090;14.420;2023-03-26T06:53:21;98512.19;;;12.07;49.48
67740;BME280;54536;50.090;14.420;2023-03-26T06:55:47;98505.41;;;12.13;49.85
67740;BME280;54536;50.090;14.420;2023-03-26T06:58:13;98508.41;;;12.10;49.88
67740;BME280;54536;50.090;14.420;2023-03-26T07:00:39;98511.50;;;12.13;49.21
67740;BME280;54536;50.090;14.420;2023-03-26T07:03:07;98505.41;;;12.13;49.13
67740;BME280;54536;50.090;14.420;2023-03-26T07:05:33;98513.97;;;12.15;49.21
67740;BME280;54536;50.090;14.420;2023-03-26T07:07:59;98511.69;;;12.04;49.36
67740;BME280;54536;50.090;14.420;2023-03-26T07:10:25;98506.88;;;12.15;48.88
67740;BME280;54536;50.090;14.420;2023-03-26T07:12:52;98510.47;;;12.23;48.85
67740;BME280;54536;50.090;14.420;2023-03-26T07:15:18;98512.28;;;12.22;49.10
67740;BME280;54536;50.090;14.420;2023-03-26T07:17:44;98506.88;;;12.24;49.13
67740;BME280;54536;50.090;14.420;2023-03-26T07:20:11;98504.09;;;12.17;49.69
67740;BME280;54536;50.090;14.420;2023-03-26T07:22:38;98505.25;;;12.14;49.49
67740;BME280;54536;50.090;14.420;2023-03-26T07:25:04;98506.38;;;12.20;48.84
67740;BME280;54536;50.090;14.420;2023-03-26T07:30:04;98508.03;;;12.21;49.17
67740;BME280;54536;50.090;14.420;2023-03-26T07:32:37;98504.38;;;12.22;48.99
67740;BME280;54536;50.090;14.420;2023-03-26T07:43:46;98492.50;;;12.43;49.52
67740;BME280;54536;50.090;14.420;2023-03-26T07:46:26;98474.88;;;12.35;49.46
67740;BME280;54536;50.090;14.420;2023-03-26T07:48:59;98475.00;;;12.50;48.48
67740;BME280;54536;50.090;14.420;2023-03-26T07:51:27;98470.69;;;12.49;48.38
67740;BME280;54536;50.090;14.420;2023-03-26T07:53:54;98471.00;;;12.54;48.84
67740;BME280;54536;50.090;14.420;2023-03-26T07:56:33;98470.06;;;12.47;48.73
67740;BME280;54536;50.090;14.420;2023-03-26T07:59:24;98464.72;;;12.55;48.46
67740;BME280;54536;50.090;14.420;2023-03-26T08:11:10;98457.41;;;12.73;47.79
67740;BME280;54536;50.090;14.420;2023-03-26T08:14:03;98456.84;;;12.86;47.37
67740;BME280;54536;50.090;14.420;2023-03-26T08:16:50;98454.19;;;12.86;46.89
67740;BME280;54536;50.090;14.420;2023-03-26T08:19:31;98460.94;;;12.88;47.25
67740;BME280;54536;50.090;14.420;2023-03-26T08:22:30;98452.09;;;13.04;46.31
67740;BME280;54536;50.090;14.420;2023-03-26T08:25:26;98450.88;;;12.92;46.04
67740;BME280;54536;50.090;14.420;2023-03-26T08:30:43;98454.94;;;13.26;46.55
67740;BME280;54536;50.090;14.420;2023-03-26T08:33:16;98442.97;;;13.38;45.37
67740;BME280;54536;50.090;14.420;2023-03-26T08:35:49;98438.28;;;13.48;44.07
67740;BME280;54536;50.090;14.420;2023-03-26T08:38:18;98438.38;;;13.55;44.06
67740;BME280;54536;50.090;14.420;2023-03-26T08:48:58;98423.91;;;13.66;43.22
67740;BME280;54536;50.090;14.420;2023-03-26T08:54:51;98405.91;;;14.14;41.55
67740;BME280;54536;50.090;14.420;2023-03-26T08:57:46;98390.19;;;14.27;41.13
67740;BME280;54536;50.090;14.420;2023-03-26T09:11:49;98383.63;;;14.52;40.66
67740;BME280;54536;50.090;14.420;2023-03-26T09:21:01;98365.63;;;14.63;39.94
67740;BME280;54536;50.090;14.420;2023-03-26T09:34:50;98353.25;;;15.13;39.03
67740;BME280;54536;50.090;14.420;2023-03-26T09:40:18;98346.38;;;15.18;38.56
67740;BME280;54536;50.090;14.420;2023-03-26T10:00:05;98328.97;;;15.31;36.98
67740;BME280;54536;50.090;14.420;2023-03-26T10:05:50;98322.09;;;15.43;36.19
67740;BME280;54536;50.090;14.420;2023-03-26T10:11:16;98309.53;;;15.52;37.05
67740;BME280;54536;50.090;14.420;2023-03-26T10:30:23;98273.59;;;15.42;37.27
67740;BME280;54536;50.090;14.420;2023-03-26T10:33:21;98267.16;;;15.58;36.95
67740;BME280;54536;50.090;14.420;2023-03-26T10:43:13;98253.72;;;15.53;37.46
67740;BME280;54536;50.090;14.420;2023-03-26T10:56:33;98248.53;;;15.73;37.46
67740;BME280;54536;50.090;14.420;2023-03-26T10:59:06;98251.03;;;15.95;37.88
67740;BME280;54536;50.090;14.420;2023-03-26T11:12:36;98239.34;;;17.30;34.76
67740;BME280;54536;50.090;14.420;2023-03-26T11:15:20;98238.09;;;17.19;34.24
67740;BME280;54536;50.090;14.420;2023-03-26T11:20:40;98228.88;;;17.35;33.57
67740;BME280;54536;50.090;14.420;2023-03-26T11:26:17;98226.28;;;16.62;34.71
67740;BME280;54536;50.090;14.420;2023-03-26T11:31:38;98218.31;;;16.42;34.74
67740;BME280;54536;50.090;14.420;2023-03-26T11:34:14;98215.88;;;16.80;34.45
67740;BME280;54536;50.090;14.420;2023-03-26T11:37:00;98209.56;;;16.75;32.99
67740;BME280;54536;50.090;14.420;2023-03-26T11:39:46;98211.81;;;16.78;33.72
67740;BME280;54536;50.090;14.420;2023-03-26T11:42:17;98214.47;;;16.84;32.67
67740;BME280;54536;50.090;14.420;2023-03-26T11:44:53;98210.16;;;16.57;32.78
67740;BME280;54536;50.090;14.420;2023-03-26T11:47:46;98196.47;;;16.53;33.44
67740;BME280;54536;50.090;14.420;2023-03-26T11:50:37;98191.38;;;16.52;33.62
67740;BME280;54536;50.090;14.420;2023-03-26T11:53:13;98200.97;;;16.73;33.08
67740;BME280;54536;50.090;14.420;2023-03-26T11:55:58;98204.25;;;16.55;33.48
67740;BME280;54536;50.090;14.420;2023-03-26T11:58:46;98210.94;;;16.44;33.62
67740;BME280;54536;50.090;14.420;2023-03-26T12:01:18;98208.69;;;16.41;34.14
67740;BME280;54536;50.090;14.420;2023-03-26T12:04:12;98203.63;;;16.53;33.76
67740;BME280;54536;50.090;14.420;2023-03-26T12:07:06;98192.59;;;16.62;34.16
67740;BME280;54536;50.090;14.420;2023-03-26T12:09:34;98199.13;;;16.40;33.51
67740;BME280;54536;50.090;14.420;2023-03-26T12:12:03;98196.44;;;16.27;34.13
67740;BME280;54536;50.090;14.420;2023-03-26T12:14:33;98195.81;;;16.25;34.59
67740;BME280;54536;50.090;14.420;2023-03-26T12:17:10;98189.91;;;16.16;34.31
67740;BME280;54536;50.090;14.420;2023-03-26T12:19:42;98191.75;;;16.22;34.26
67740;BME280;54536;50.090;14.420;2023-03-26T12:22:33;98197.22;;;15.94;34.45
67740;BME280;54536;50.090;14.420;2023-03-26T12:27:42;98200.59;;;15.68;35.73
67740;BME280;54536;50.090;14.420;2023-03-26T12:32:47;98194.88;;;15.71;35.69
67740;BME280;54536;50.090;14.420;2023-03-26T12:35:22;98192.66;;;15.75;36.75
67740;BME280;54536;50.090;14.420;2023-03-26T12:37:53;98194.81;;;15.58;36.52
67740;BME280;54536;50.090;14.420;2023-03-26T12:40:34;98188.97;;;15.76;35.30
67740;BME280;54536;50.090;14.420;2023-03-26T12:43:21;98183.50;;;15.77;34.79
67740;BME280;54536;50.090;14.420;2023-03-26T12:45:52;98178.38;;;15.76;34.85
67740;BME280;54536;50.090;14.420;2023-03-26T12:48:19;98189.13;;;15.61;35.31
67740;BME280;54536;50.090;14.420;2023-03-26T12:56:34;98184.06;;;15.73;36.06
67740;BME280;54536;50.090;14.420;2023-03-26T12:59:19;98170.72;;;15.53;35.49
67740;BME280;54536;50.090;14.420;2023-03-26T13:02:00;98169.72;;;15.47;36.32
67740;BME280;54536;50.090;14.420;2023-03-26T13:04:54;98168.44;;;15.43;35.56
67740;BME280;54536;50.090;14.420;2023-03-26T13:07:36;98167.84;;;15.41;34.66
67740;BME280;54536;50.090;14.420;2023-03-26T13:13:10;98157.69;;;15.51;34.07
67740;BME280;54536;50.090;14.420;2023-03-26T13:15:51;98168.25;;;15.44;34.55
67740;BME280;54536;50.090;14.420;2023-03-26T13:18:46;98159.69;;;15.42;35.51
67740;BME280;54536;50.090;14.420;2023-03-26T13:23:48;98166.38;;;15.32;36.25
67740;BME280;54536;50.090;14.420;2023-03-26T13:34:25;98174.72;;;14.94;39.47
67740;BME280;54536;50.090;14.420;2023-03-26T13:37:10;98176.72;;;14.85;41.52
67740;BME280;54536;50.090;14.420;2023-03-26T13:45:49;98175.28;;;14.61;45.54
67740;BME280;54536;50.090;14.420;2023-03-26T13:48:27;98177.72;;;14.56;45.71
67740;BME280;54536;50.090;14.420;2023-03-26T13:51:17;98176.19;;;14.25;47.10
67740;BME280;54536;50.090;14.420;2023-03-26T13:53:54;98171.59;;;14.34;48.54
67740;BME280;54536;50.090;14.420;2023-03-26T13:56:29;98176.13;;;14.19;49.44
67740;BME280;54536;50.090;14.420;2023-03-26T13:59:06;98179.41;;;13.99;50.89
67740;BME280;54536;50.090;14.420;2023-03-26T14:01:46;98173.88;;;13.94;50.03
67740;BME280;54536;50.090;14.420;2023-03-26T14:04:27;98171.28;;;14.01;51.43
67740;BME280;54536;50.090;14.420;2023-03-26T14:07:09;98172.03;;;13.95;51.28
67740;BME280;54536;50.090;14.420;2023-03-26T14:12:28;98175.63;;;13.87;51.81
67740;BME280;54536;50.090;14.420;2023-03-26T14:15:04;98168.22;;;13.97;53.19
67740;BME280;54536;50.090;14.420;2023-03-26T14:41:00;98143.13;;;13.87;54.79
67740;BME280;54536;50.090;14.420;2023-03-26T14:49:27;98148.78;;;13.47;54.50
67740;BME280;54536;50.090;14.420;2023-03-26T14:54:47;98144.59;;;13.38;54.38
67740;BME280;54536;50.090;14.420;2023-03-26T14:57:36;98145.50;;;13.45;54.31
67740;BME280;54536;50.090;14.420;2023-03-26T15:14:35;98122.69;;;13.08;55.29
67740;BME280;54536;50.090;14.420;2023-03-26T15:31:33;98107.22;;;13.05;55.48
67740;BME280;54536;50.090;14.420;2023-03-26T15:34:17;98090.91;;;13.31;55.62
67740;BME280;54536;50.090;14.420;2023-03-26T15:42:17;98091.34;;;13.34;54.13
67740;BME280;54536;50.090;14.420;2023-03-26T15:48:17;98094.47;;;12.94;55.27
67740;BME280;54536;50.090;14.420;2023-03-26T15:53:35;98099.31;;;12.75;52.63
67740;BME280;54536;50.090;14.420;2023-03-26T15:58:51;98087.41;;;12.79;52.40
67740;BME280;54536;50.090;14.420;2023-03-26T16:01:49;98080.66;;;12.77;53.43
67740;BME280;54536;50.090;14.420;2023-03-26T16:04:42;98077.94;;;12.70;53.08
67740;BME280;54536;50.090;14.420;2023-03-26T16:15:31;98066.84;;;12.60;53.78
67740;BME280;54536;50.090;14.420;2023-03-26T16:23:33;98075.66;;;12.67;53.13
67740;BME280;54536;50.090;14.420;2023-03-26T16:28:33;98073.94;;;12.59;53.52
67740;BME280;54536;50.090;14.420;2023-03-26T16:36:36;98068.38;;;12.54;54.29
67740;BME280;54536;50.090;14.420;2023-03-26T16:52:24;98058.00;;;12.38;56.33
67740;BME280;54536;50.090;14.420;2023-03-26T16:58:27;98048.09;;;12.40;55.67
67740;BME280;54536;50.090;14.420;2023-03-26T17:00:50;98043.91;;;12.46;56.60
67740;BME280;54536;50.090;14.420;2023-03-26T17:03:49;98043.53;;;12.19;56.00
67740;BME280;54536;50.090;14.420;2023-03-26T17:17:31;98072.94;;;12.60;57.47
67740;BME280;54536;50.090;14.420;2023-03-26T17:26:42;98066.91;;;12.52;57.31
67740;BME280;54536;50.090;14.420;2023-03-26T17:32:10;98065.09;;;12.37;58.50
67740;BME280;54536;50.090;14.420;2023-03-26T17:34:39;98069.81;;;12.27;59.53
67740;BME280;54536;50.090;14.420;2023-03-26T17:42:33;98071.59;;;12.12;60.64
67740;BME280;54536;50.090;14.420;2023-03-26T17:45:21;98073.97;;;12.22;60.00
67740;BME280;54536;50.090;14.420;2023-03-26T17:47:57;98075.03;;;12.12;59.87
67740;BME280;54536;50.090;14.420;2023-03-26T17:50:31;98069.66;;;12.06;61.23
67740;BME280;54536;50.090;14.420;2023-03-26T17:53:29;98075.19;;;11.96;60.76
67740;BME280;54536;50.090;14.420;2023-03-26T17:56:00;98063.78;;;12.04;60.29
67740;BME280;54536;50.090;14.420;2023-03-26T18:01:22;98065.66;;;11.95;60.55
67740;BME280;54536;50.090;14.420;2023-03-26T18:03:56;98058.97;;;12.07;60.76
67740;BME280;54536;50.090;14.420;2023-03-26T18:09:20;98053.72;;;12.22;60.42
67740;BME280;54536;50.090;14.420;2023-03-26T18:18:09;98070.22;;;12.16;60.30
67740;BME280;54536;50.090;14.420;2023-03-26T18:20:37;98072.91;;;11.93;60.69
67740;BME280;54536;50.090;14.420;2023-03-26T18:23:38;98078.03;;;12.09;60.64
67740;BME280;54536;50.090;14.420;2023-03-26T18:26:22;98075.03;;;11.98;61.56
67740;BME280;54536;50.090;14.420;2023-03-26T18:29:36;98082.34;;;11.87;61.38
67740;BME280;54536;50.090;14.420;2023-03-26T18:34:38;98078.38;;;12.06;61.96
67740;BME280;54536;50.090;14.420;2023-03-26T18:39:37;98057.50;;;12.19;60.46
67740;BME280;54536;50.090;14.420;2023-03-26T18:42:04;98062.13;;;12.03;61.52
67740;BME280;54536;50.090;14.420;2023-03-26T18:44:34;98067.03;;;12.06;61.26
67740;BME280;54536;50.090;14.420;2023-03-26T18:47:06;98073.63;;;12.10;61.50
67740;BME280;54536;50.090;14.420;2023-03-26T18:49:35;98064.59;;;12.04;61.69
67740;BME280;54536;50.090;14.420;2023-03-26T18:52:02;98058.50;;;12.04;61.87
67740;BME280;54536;50.090;14.420;2023-03-26T18:54:33;98055.41;;;12.00;61.65
67740;BME280;54536;50.090;14.420;2023-03-26T18:57:08;98048.03;;;11.95;62.14
67740;BME280;54536;50.090;14.420;2023-03-26T18:59:36;98048.94;;;12.03;61.92
67740;BME280;54536;50.090;14.420;2023-03-26T19:02:10;98039.59;;;12.00;61.50
67740;BME280;54536;50.090;14.420;2023-03-26T19:04:40;98033.69;;;11.98;62.23